Time;durP1;ratioP1;P1;durP2;ratioP2;P2;SDS_P1;SDS_P2;PMS_P1;PMS_P2;Temp;Humidity;BMP_temperature;BMP_pressure;BME280_temperature;BME280_humidity;BME280_pressure;Samples;Min_cycle;Max_cycle;Signal;HPM_P1;HPM_P2
2021/08/14 00:01:03;;;;;;;14.35;3.22;;;;;;;24.47;43.44;100937.44;4425747;32;20017;-69
2021/08/14 00:03:30;;;;;;;13.73;2.33;;;;;;;24.42;43.46;100944.78;4427174;32;20037;-69
2021/08/14 00:05:56;;;;;;;8.23;2.45;;;;;;;24.42;43.20;100936.16;4426846;32;20069;-69
2021/08/14 00:08:21;;;;;;;18.58;3.03;;;;;;;24.30;43.47;100931.75;4424691;32;20112;-69
2021/08/14 00:10:47;;;;;;;12.18;2.53;;;;;;;24.24;43.55;100930.22;4426362;32;20400;-69
2021/08/14 00:13:13;;;;;;;8.18;2.03;;;;;;;24.47;43.02;100935.34;4428888;32;20041;-69
2021/08/14 00:15:39;;;;;;;13.02;2.10;;;;;;;24.29;43.29;100930.19;4426166;32;20099;-70
2021/08/14 00:18:04;;;;;;;12.77;2.50;;;;;;;24.17;43.38;100931.56;4423218;32;20073;-70
2021/08/14 00:20:30;;;;;;;9.00;2.40;;;;;;;24.23;43.21;100931.53;4421321;32;20033;-69
2021/08/14 00:22:58;;;;;;;11.15;2.30;;;;;;;24.24;43.00;100927.34;4424730;32;20516;-69
2021/08/14 00:25:23;;;;;;;8.82;2.05;;;;;;;24.30;42.81;100920.25;4423503;32;20077;-69
2021/08/14 00:27:49;;;;;;;11.38;2.60;;;;;;;24.28;42.80;100934.41;4424896;32;20025;-69
2021/08/14 00:30:15;;;;;;;9.20;2.17;;;;;;;24.45;42.46;100931.44;4425590;32;20063;-69
2021/08/14 00:32:41;;;;;;;10.57;2.40;;;;;;;24.33;42.50;100924.94;4424043;32;20390;-69
2021/08/14 00:35:07;;;;;;;10.18;2.25;;;;;;;24.42;42.39;100929.63;4421561;32;20110;-69
2021/08/14 00:37:33;;;;;;;15.90;2.40;;;;;;;24.56;42.27;100937.12;4424902;32;20042;-69
2021/08/14 00:39:59;;;;;;;8.88;2.10;;;;;;;24.22;42.70;100939.38;4425237;32;20610;-69
2021/08/14 00:42:24;;;;;;;7.70;1.90;;;;;;;24.20;42.68;100930.50;4426858;32;20077;-69
2021/08/14 00:44:50;;;;;;;12.68;2.97;;;;;;;24.16;42.90;100934.94;4428185;32;20038;-69
2021/08/14 00:47:16;;;;;;;9.93;2.03;;;;;;;24.15;42.83;100928.44;4419599;32;20195;-69
2021/08/14 00:49:42;;;;;;;12.32;2.40;;;;;;;24.33;42.37;100936.44;4423823;32;20053;-69
2021/08/14 00:52:07;;;;;;;11.88;2.25;;;;;;;24.31;42.50;100933.34;4422416;32;20497;-69
2021/08/14 00:54:33;;;;;;;7.90;2.03;;;;;;;23.99;43.25;100932.13;4425874;32;20066;-69
2021/08/14 00:56:59;;;;;;;8.38;2.28;;;;;;;24.42;42.37;100923.88;4422268;32;21049;-70
2021/08/14 00:59:28;;;;;;;9.52;2.10;;;;;;;24.22;42.67;100909.84;4424532;32;20073;-69
2021/08/14 01:01:55;;;;;;;12.32;2.60;;;;;;;24.56;42.20;100917.00;4425532;32;20350;-69
2021/08/14 01:04:22;;;;;;;9.68;2.50;;;;;;;24.49;42.06;100917.56;4426542;32;20469;-69
2021/08/14 01:06:50;;;;;;;9.95;2.50;;;;;;;24.61;41.92;100916.94;4423254;32;20045;-69
2021/08/14 01:09:16;;;;;;;9.82;2.58;;;;;;;24.24;42.70;100913.72;4423602;32;20099;-69
2021/08/14 01:11:42;;;;;;;16.90;2.80;;;;;;;24.40;42.33;100914.97;4425239;32;20115;-69
2021/08/14 01:14:08;;;;;;;10.73;2.37;;;;;;;24.46;42.18;100907.91;4427842;32;20423;-69
2021/08/14 01:16:34;;;;;;;16.48;2.55;;;;;;;24.47;42.05;100903.69;4420847;32;20037;-69
2021/08/14 01:19:00;;;;;;;11.80;2.30;;;;;;;24.43;42.33;100897.47;4424943;32;20029;-69
2021/08/14 01:21:25;;;;;;;9.20;2.20;;;;;;;24.52;42.18;100896.34;4422196;32;20232;-69
2021/08/14 01:23:54;;;;;;;11.55;2.50;;;;;;;24.53;42.19;100906.53;4427295;32;20030;-69
2021/08/14 01:26:21;;;;;;;8.48;2.30;;;;;;;24.73;41.94;100909.09;4422200;32;20082;-69
2021/08/14 01:28:47;;;;;;;11.12;2.55;;;;;;;24.80;41.81;100905.63;4428397;32;20130;-69
2021/08/14 01:31:15;;;;;;;10.90;2.45;;;;;;;24.71;42.02;100908.81;4424089;32;20034;-69
2021/08/14 01:33:42;;;;;;;8.90;2.20;;;;;;;24.61;42.33;100898.91;4423000;32;20070;-69
2021/08/14 01:36:10;;;;;;;13.73;2.47;;;;;;;24.89;41.91;100905.31;4425295;32;20095;-69
2021/08/14 01:38:45;;;;;;;8.20;2.70;;;;;;;24.81;42.07;100904.31;4421692;32;20130;-69
2021/08/14 01:41:11;;;;;;;11.10;2.37;;;;;;;24.85;41.88;100902.69;4417048;32;20064;-69
2021/08/14 01:44:05;;;;;;;11.63;2.53;;;;;;;24.63;42.29;100904.91;4423029;32;20037;-69
2021/08/14 01:46:34;;;;;;;6.97;2.12;;;;;;;24.68;42.32;100895.50;4422737;32;20069;-69
2021/08/14 01:49:03;;;;;;;7.32;2.08;;;;;;;24.61;42.64;100891.03;4423181;32;20070;-69
2021/08/14 01:51:30;;;;;;;7.68;1.92;;;;;;;24.73;42.42;100894.69;4426380;32;20491;-69
2021/08/14 01:53:57;;;;;;;7.75;1.67;;;;;;;24.67;42.49;100891.81;4424413;32;20033;-69
2021/08/14 01:56:24;;;;;;;11.85;2.20;;;;;;;24.93;42.06;100897.94;4423377;32;20072;-69
2021/08/14 01:58:50;;;;;;;8.88;2.47;;;;;;;24.60;42.70;100901.00;4420392;32;20462;-69
2021/08/14 02:01:16;;;;;;;10.05;2.25;;;;;;;24.60;42.58;100898.13;4422519;32;20446;-68
2021/08/14 02:03:42;;;;;;;9.52;2.33;;;;;;;24.72;42.52;100898.88;4424362;32;20083;-68
2021/08/14 02:06:08;;;;;;;12.73;2.75;;;;;;;24.73;42.45;100888.94;4423545;32;20438;-68
2021/08/14 02:08:35;;;;;;;13.25;2.37;;;;;;;24.84;42.01;100889.62;4424396;32;20060;-68
2021/08/14 02:11:02;;;;;;;8.98;2.33;;;;;;;24.84;42.39;100891.72;4426405;32;20030;-68
2021/08/14 02:13:30;;;;;;;10.55;2.58;;;;;;;24.97;42.25;100886.91;4422481;32;20055;-68
2021/08/14 02:15:56;;;;;;;18.85;2.50;;;;;;;25.00;42.12;100894.47;4425017;32;20180;-68
2021/08/14 02:18:22;;;;;;;15.57;2.00;;;;;;;25.00;42.02;100885.84;4424987;32;20037;-68
2021/08/14 02:20:48;;;;;;;12.75;2.78;;;;;;;24.97;42.11;100897.63;4423819;32;20060;-68
2021/08/14 02:23:14;;;;;;;7.95;2.05;;;;;;;24.95;42.02;100901.03;4424471;32;20382;-68
2021/08/14 02:25:39;;;;;;;8.95;2.20;;;;;;;25.08;41.83;100889.72;4424675;32;20100;-68
2021/08/14 02:28:08;;;;;;;8.30;2.25;;;;;;;24.98;41.99;100899.97;4421992;32;20054;-68
2021/08/14 02:30:34;;;;;;;9.90;2.62;;;;;;;24.60;42.73;100892.38;4424990;32;20461;-68
2021/08/14 02:32:59;;;;;;;13.98;2.58;;;;;;;24.80;42.40;100892.03;4421993;32;20042;-68
2021/08/14 02:35:26;;;;;;;9.57;2.20;;;;;;;25.03;41.94;100901.25;4425459;32;20030;-68
2021/08/14 02:37:51;;;;;;;8.68;2.03;;;;;;;25.01;42.01;100896.03;4423876;32;20064;-68
2021/08/14 02:40:17;;;;;;;10.50;2.22;;;;;;;25.11;41.82;100890.72;4425351;32;20034;-68
2021/08/14 02:42:44;;;;;;;13.18;2.22;;;;;;;24.86;42.37;100886.22;4421403;32;20379;-68
2021/08/14 02:45:11;;;;;;;7.05;2.10;;;;;;;24.95;42.35;100888.78;4426752;32;20074;-68
2021/08/14 02:47:37;;;;;;;11.07;2.25;;;;;;;24.97;42.29;100892.66;4426477;32;20092;-68
2021/08/14 02:50:06;;;;;;;9.95;2.40;;;;;;;24.98;41.89;100891.34;4426580;32;20021;-68
2021/08/14 02:52:32;;;;;;;12.68;2.47;;;;;;;25.16;41.87;100887.78;4425338;32;20465;-68
2021/08/14 02:54:58;;;;;;;8.95;2.35;;;;;;;25.09;41.77;100881.84;4427154;32;20099;-68
2021/08/14 02:57:24;;;;;;;11.80;2.37;;;;;;;24.90;42.20;100895.34;4427167;32;20033;-68
2021/08/14 02:59:49;;;;;;;12.10;2.45;;;;;;;24.90;42.22;100893.25;4427173;32;20048;-68
2021/08/14 03:02:15;;;;;;;10.40;1.98;;;;;;;24.64;42.78;100880.59;4425531;32;21140;-68
2021/08/14 03:04:40;;;;;;;9.27;2.35;;;;;;;24.89;42.14;100890.91;4426675;32;20066;-68
2021/08/14 03:07:06;;;;;;;13.05;2.70;;;;;;;24.82;42.39;100897.25;4430766;32;20112;-68
2021/08/14 03:09:32;;;;;;;11.27;2.25;;;;;;;24.88;42.25;100889.34;4425028;32;20061;-68
2021/08/14 03:11:58;;;;;;;9.52;1.92;;;;;;;24.78;42.60;100886.00;4425997;32;20111;-68
2021/08/14 03:14:24;;;;;;;8.80;1.92;;;;;;;24.68;42.79;100881.09;4428493;32;20141;-68
2021/08/14 03:16:49;;;;;;;12.27;2.33;;;;;;;24.91;42.35;100888.28;4427450;32;20080;-68
2021/08/14 03:19:15;;;;;;;8.73;1.75;;;;;;;24.94;42.26;100890.84;4421762;32;20367;-68
2021/08/14 03:21:41;;;;;;;12.60;2.42;;;;;;;24.92;42.41;100895.59;4424751;32;20093;-68
2021/08/14 03:24:07;;;;;;;9.98;1.90;;;;;;;24.92;42.20;100890.63;4426908;32;20121;-68
2021/08/14 03:26:32;;;;;;;6.12;2.03;;;;;;;24.51;43.24;100877.53;4425757;32;20069;-68
2021/08/14 03:28:58;;;;;;;10.23;2.65;;;;;;;24.76;42.73;100880.00;4426358;32;20061;-68
2021/08/14 03:31:24;;;;;;;9.80;2.10;;;;;;;24.91;42.39;100886.16;4426094;32;20068;-68
2021/08/14 03:33:50;;;;;;;9.18;1.83;;;;;;;24.82;42.61;100882.84;4422499;32;20042;-68
2021/08/14 03:36:16;;;;;;;10.63;2.50;;;;;;;24.90;42.46;100883.81;4426770;32;20363;-68
2021/08/14 03:38:42;;;;;;;13.05;2.30;;;;;;;24.93;42.43;100891.37;4425771;32;20096;-68
2021/08/14 03:41:09;;;;;;;13.10;2.92;;;;;;;24.65;43.03;100882.16;4424675;32;20029;-68
2021/08/14 03:43:36;;;;;;;11.57;2.37;;;;;;;24.60;43.29;100886.62;4427788;32;20041;-68
2021/08/14 03:46:02;;;;;;;9.80;2.67;;;;;;;24.80;42.92;100888.34;4423160;32;20056;-68
2021/08/14 03:48:28;;;;;;;10.57;2.30;;;;;;;24.63;43.20;100884.75;4424999;32;20496;-68
2021/08/14 03:50:55;;;;;;;14.75;2.60;;;;;;;24.66;42.98;100880.84;4424622;32;20034;-68
2021/08/14 03:53:21;;;;;;;7.55;1.85;;;;;;;24.60;43.18;100895.25;4429715;32;20070;-68
2021/08/14 03:55:47;;;;;;;8.48;2.35;;;;;;;24.79;42.80;100890.44;4418845;32;20157;-68
2021/08/14 03:58:13;;;;;;;13.52;2.40;;;;;;;24.86;42.60;100887.00;4424740;32;20100;-68
2021/08/14 04:00:39;;;;;;;13.98;2.45;;;;;;;24.66;43.06;100889.47;4426947;32;20454;-68
2021/08/14 04:03:04;;;;;;;8.82;2.12;;;;;;;24.64;43.21;100874.84;4425062;32;20073;-68
2021/08/14 04:05:30;;;;;;;14.00;2.65;;;;;;;24.72;43.05;100873.75;4427342;32;20069;-68
2021/08/14 04:07:56;;;;;;;8.15;2.53;;;;;;;24.45;43.45;100877.53;4426742;32;20115;-68
2021/08/14 04:10:22;;;;;;;9.30;2.25;;;;;;;24.46;43.50;100875.47;4422454;32;20037;-68
2021/08/14 04:12:54;;;;;;;16.95;2.90;;;;;;;24.58;43.48;100885.59;4422391;32;20098;-68
2021/08/14 04:15:20;;;;;;;13.80;2.45;;;;;;;24.50;43.61;100879.62;4422801;32;20041;-68
2021/08/14 04:17:46;;;;;;;10.20;2.30;;;;;;;24.54;43.52;100885.88;4426328;32;20110;-68
2021/08/14 04:20:12;;;;;;;10.00;2.00;;;;;;;24.65;43.34;100882.16;4426492;32;20077;-68
2021/08/14 04:22:38;;;;;;;12.80;2.35;;;;;;;24.54;43.66;100879.34;4421018;32;20109;-68
2021/08/14 04:25:04;;;;;;;10.52;2.12;;;;;;;24.35;43.99;100879.19;4420919;32;20034;-68
2021/08/14 04:27:31;;;;;;;9.77;3.05;;;;;;;24.36;44.12;100874.97;4424940;32;20034;-68
2021/08/14 04:29:57;;;;;;;10.90;2.90;;;;;;;24.38;43.87;100874.44;4422827;32;20143;-68
2021/08/14 04:32:23;;;;;;;9.93;2.28;;;;;;;24.49;43.71;100880.94;4423874;32;20141;-68
2021/08/14 04:34:48;;;;;;;9.38;2.50;;;;;;;24.38;43.86;100881.00;4424020;32;20045;-68
2021/08/14 04:37:15;;;;;;;10.77;2.45;;;;;;;24.40;43.71;100886.22;4422957;32;20563;-68
2021/08/14 04:39:41;;;;;;;11.45;2.83;;;;;;;24.58;43.47;100888.47;4423368;32;20470;-68
2021/08/14 04:42:07;;;;;;;10.55;2.67;;;;;;;24.62;43.43;100880.31;4423621;32;20103;-68
2021/08/14 04:44:33;;;;;;;8.18;2.30;;;;;;;24.71;43.18;100882.91;4427098;32;20370;-68
2021/08/14 04:47:01;;;;;;;10.57;2.40;;;;;;;24.66;43.39;100883.72;4425771;32;20128;-68
2021/08/14 04:49:27;;;;;;;15.48;2.60;;;;;;;24.67;43.25;100891.06;4426736;32;20069;-68
2021/08/14 04:51:52;;;;;;;9.68;2.78;;;;;;;24.64;43.36;100886.34;4425208;32;20410;-68
2021/08/14 04:54:18;;;;;;;8.30;2.35;;;;;;;24.67;43.29;100893.94;4425436;32;20114;-68
2021/08/14 04:56:44;;;;;;;11.43;2.97;;;;;;;24.64;43.33;100887.13;4426888;32;20475;-68
2021/08/14 04:59:10;;;;;;;6.68;2.17;;;;;;;24.70;43.14;100892.88;4422911;32;20037;-68
2021/08/14 05:01:35;;;;;;;14.02;2.72;;;;;;;24.71;43.14;100894.44;4425996;32;20355;-68
2021/08/14 05:04:01;;;;;;;15.98;3.33;;;;;;;24.42;43.73;100893.00;4427186;32;20030;-68
2021/08/14 05:06:27;;;;;;;14.13;2.67;;;;;;;24.45;43.74;100897.69;4422531;32;20347;-68
2021/08/14 05:08:53;;;;;;;12.25;2.95;;;;;;;24.62;43.32;100894.72;4426095;32;20059;-68
2021/08/14 05:11:18;;;;;;;5.78;2.47;;;;;;;24.39;43.82;100891.19;4424170;32;21222;-68
2021/08/14 05:13:44;;;;;;;10.38;2.58;;;;;;;24.44;43.76;100886.72;4422294;32;20040;-68
2021/08/14 05:16:09;;;;;;;9.80;2.25;;;;;;;24.07;44.67;100897.87;4423441;32;20083;-68
2021/08/14 05:18:36;;;;;;;9.98;2.53;;;;;;;24.23;44.39;100892.03;4423323;32;20026;-68
2021/08/14 05:21:02;;;;;;;8.77;2.70;;;;;;;24.06;44.58;100905.72;4424805;32;20026;-68
2021/08/14 05:23:28;;;;;;;8.40;2.08;;;;;;;23.92;45.06;100903.91;4421451;32;20129;-68
2021/08/14 05:25:53;;;;;;;11.10;2.58;;;;;;;23.95;45.12;100897.13;4420438;32;20073;-68
2021/08/14 05:28:21;;;;;;;10.57;2.62;;;;;;;23.76;45.57;100903.94;4424000;32;20029;-68
2021/08/14 05:30:47;;;;;;;11.65;2.42;;;;;;;23.87;45.40;100896.06;4424342;32;20165;-68
2021/08/14 05:33:13;;;;;;;9.32;2.53;;;;;;;23.92;45.33;100891.59;4423476;32;20030;-68
2021/08/14 05:35:39;;;;;;;9.82;2.55;;;;;;;23.91;45.41;100892.94;4420810;32;20029;-68
2021/08/14 05:38:04;;;;;;;8.85;2.83;;;;;;;23.88;45.33;100897.66;4425458;32;20025;-68
2021/08/14 05:40:30;;;;;;;6.80;2.50;;;;;;;24.09;44.85;100889.50;4424549;32;20467;-68
2021/08/14 05:42:56;;;;;;;10.43;2.55;;;;;;;24.20;44.69;100890.22;4421244;32;20097;-68
2021/08/14 05:45:22;;;;;;;12.23;2.58;;;;;;;24.31;44.44;100895.94;4424560;32;20062;-68
2021/08/14 05:47:47;;;;;;;13.65;2.90;;;;;;;24.45;43.97;100906.31;4424444;32;20549;-68
2021/08/14 05:50:13;;;;;;;13.18;2.97;;;;;;;24.34;44.26;100909.28;4427453;32;20390;-68
2021/08/14 05:52:39;;;;;;;13.07;3.00;;;;;;;24.31;44.42;100909.53;4424340;32;20038;-68
2021/08/14 05:55:06;;;;;;;9.45;2.95;;;;;;;24.56;43.73;100919.88;4425622;32;20041;-68
2021/08/14 05:57:32;;;;;;;9.38;3.30;;;;;;;24.56;43.99;100932.16;4421988;32;20014;-68
2021/08/14 05:59:58;;;;;;;11.23;2.97;;;;;;;24.65;43.64;100926.13;4420352;32;20081;-68
2021/08/14 06:02:23;;;;;;;8.25;2.70;;;;;;;24.71;43.52;100929.75;4424812;32;20053;-68
2021/08/14 06:04:49;;;;;;;11.43;2.97;;;;;;;24.72;43.42;100928.44;4425955;32;20041;-68
2021/08/14 06:07:15;;;;;;;9.10;3.33;;;;;;;24.53;43.67;100933.22;4419780;32;20046;-68
2021/08/14 06:09:41;;;;;;;10.45;2.70;;;;;;;24.65;43.36;100937.66;4424804;32;20564;-68
2021/08/14 06:12:07;;;;;;;12.05;3.00;;;;;;;24.56;43.69;100931.38;4423540;32;20545;-68
2021/08/14 06:14:33;;;;;;;10.57;2.60;;;;;;;24.62;43.67;100930.03;4423815;32;20049;-68
2021/08/14 06:16:59;;;;;;;14.23;2.90;;;;;;;24.65;43.59;100919.59;4422631;32;20089;-68
2021/08/14 06:19:25;;;;;;;9.10;2.65;;;;;;;24.54;43.76;100923.28;4423878;32;20068;-68
2021/08/14 06:21:50;;;;;;;9.75;2.60;;;;;;;24.71;43.42;100921.13;4425740;32;20445;-68
2021/08/14 06:24:16;;;;;;;16.65;2.92;;;;;;;24.89;43.11;100917.63;4426370;32;20061;-68
2021/08/14 06:26:42;;;;;;;13.62;3.30;;;;;;;24.79;43.36;100919.22;4429226;32;20046;-68
2021/08/14 06:29:07;;;;;;;10.15;3.15;;;;;;;24.82;43.01;100926.78;4421672;32;20081;-68
2021/08/14 06:31:34;;;;;;;14.07;2.75;;;;;;;24.78;43.45;100925.50;4427968;32;20041;-68
2021/08/14 06:33:59;;;;;;;9.75;2.95;;;;;;;24.82;43.31;100926.78;4428368;32;20355;-68
2021/08/14 06:36:25;;;;;;;16.48;2.90;;;;;;;24.83;43.15;100928.37;4428411;32;20108;-68
2021/08/14 06:38:51;;;;;;;9.13;2.50;;;;;;;24.62;43.88;100929.25;4425151;32;20590;-68
2021/08/14 06:41:17;;;;;;;9.52;2.47;;;;;;;24.77;43.45;100927.63;4424573;32;20103;-68
2021/08/14 06:43:42;;;;;;;13.18;2.92;;;;;;;24.51;44.13;100930.09;4425858;32;20136;-68
2021/08/14 06:46:08;;;;;;;10.15;3.15;;;;;;;24.53;44.03;100929.56;4427651;32;20768;-68
2021/08/14 06:48:35;;;;;;;7.75;2.25;;;;;;;24.45;44.08;100937.97;4423857;32;20223;-68
2021/08/14 06:51:01;;;;;;;7.82;2.62;;;;;;;24.29;44.85;100943.78;4424306;32;20057;-68
2021/08/14 06:53:27;;;;;;;15.45;3.47;;;;;;;24.34;44.57;100943.78;4427139;32;20073;-68
2021/08/14 06:55:53;;;;;;;11.35;2.72;;;;;;;24.28;44.79;100942.22;4423081;32;20119;-68
2021/08/14 06:58:18;;;;;;;15.27;3.12;;;;;;;24.71;43.79;100943.38;4424033;32;20148;-68
2021/08/14 07:00:44;;;;;;;13.95;2.87;;;;;;;24.49;44.20;100940.56;4426495;32;20183;-68
2021/08/14 07:03:10;;;;;;;16.05;2.62;;;;;;;24.57;44.27;100945.22;4427088;32;20058;-68
2021/08/14 07:05:39;;;;;;;13.93;3.28;;;;;;;24.55;44.28;100941.31;4426379;32;20433;-68
2021/08/14 07:08:06;;;;;;;18.48;3.22;;;;;;;25.49;42.56;100944.38;4427319;32;20134;-68
2021/08/14 07:10:32;;;;;;;8.93;2.50;;;;;;;25.07;43.13;100939.22;4427724;32;20055;-68
2021/08/14 07:12:57;;;;;;;13.93;3.30;;;;;;;25.25;42.84;100936.44;4424569;32;20072;-68
2021/08/14 07:15:23;;;;;;;15.30;3.25;;;;;;;25.14;42.96;100938.63;4425664;32;20033;-68
2021/08/14 07:17:50;;;;;;;8.43;3.40;;;;;;;25.04;43.15;100932.41;4424055;32;20156;-68
2021/08/14 07:20:16;;;;;;;13.93;3.10;;;;;;;25.18;42.87;100934.12;4423324;32;20049;-68
2021/08/14 07:22:42;;;;;;;9.60;3.08;;;;;;;25.11;43.09;100928.16;4426177;32;20477;-68
2021/08/14 07:25:08;;;;;;;9.95;2.90;;;;;;;25.20;42.74;100942.25;4426890;32;20045;-68
2021/08/14 07:27:33;;;;;;;15.95;3.75;;;;;;;25.30;42.64;100926.97;4423993;32;20091;-68
2021/08/14 07:29:59;;;;;;;9.65;2.85;;;;;;;25.40;42.29;100920.91;4420995;32;20089;-68
2021/08/14 07:32:25;;;;;;;13.48;3.40;;;;;;;25.71;41.55;100926.09;4426342;32;20533;-68
2021/08/14 07:34:51;;;;;;;10.80;3.30;;;;;;;25.89;41.21;100934.03;4420215;32;20190;-68
2021/08/14 07:37:18;;;;;;;13.77;3.37;;;;;;;25.65;41.49;100928.25;4426561;32;20107;-68
2021/08/14 07:39:43;;;;;;;10.05;2.80;;;;;;;26.00;41.09;100926.06;4421568;32;20069;-68
2021/08/14 07:42:09;;;;;;;20.67;3.47;;;;;;;26.05;40.76;100927.34;4426237;32;20096;-68
2021/08/14 07:44:35;;;;;;;10.43;2.95;;;;;;;26.06;40.78;100926.00;4426424;32;20108;-68
2021/08/14 07:47:00;;;;;;;16.37;3.58;;;;;;;26.13;40.74;100940.59;4428057;32;20120;-68
2021/08/14 07:49:26;;;;;;;17.00;3.53;;;;;;;25.90;41.12;100933.50;4425327;32;20493;-68
2021/08/14 07:51:51;;;;;;;16.33;3.35;;;;;;;26.15;40.75;100932.19;4424703;32;20078;-68
2021/08/14 07:54:17;;;;;;;12.70;3.35;;;;;;;26.28;40.18;100928.63;4428700;32;20456;-68
2021/08/14 07:56:43;;;;;;;12.37;2.95;;;;;;;26.19;40.40;100923.22;4424358;32;20144;-68
2021/08/14 07:59:09;;;;;;;9.05;2.78;;;;;;;26.32;40.07;100920.44;4422399;32;20042;-68
2021/08/14 08:01:34;;;;;;;12.45;3.30;;;;;;;26.44;39.93;100933.38;4423866;32;20663;-68
2021/08/14 08:04:00;;;;;;;11.88;2.97;;;;;;;26.40;39.67;100932.94;4425280;32;20355;-68
2021/08/14 08:06:25;;;;;;;14.38;3.42;;;;;;;26.67;39.25;100940.47;4423160;32;20033;-68
2021/08/14 08:08:51;;;;;;;14.32;4.10;;;;;;;26.62;38.90;100930.56;4421458;32;20085;-68
2021/08/14 08:11:16;;;;;;;13.07;4.25;;;;;;;26.90;38.06;100928.03;4426423;32;20394;-68
2021/08/14 08:13:42;;;;;;;14.60;4.80;;;;;;;26.87;38.17;100934.12;4425605;32;20066;-68
2021/08/14 08:16:08;;;;;;;13.52;3.33;;;;;;;26.86;37.36;100944.12;4428102;32;20033;-68
2021/08/14 08:18:34;;;;;;;13.93;3.72;;;;;;;26.50;37.51;100940.66;4423391;32;20037;-68
2021/08/14 08:21:00;;;;;;;12.15;4.00;;;;;;;26.73;37.28;100946.94;4425396;32;20069;-68
2021/08/14 08:23:26;;;;;;;11.63;3.80;;;;;;;26.93;36.81;100937.72;4426001;32;20038;-68
2021/08/14 08:25:51;;;;;;;15.05;4.05;;;;;;;27.11;36.31;100928.25;4421387;32;20698;-68
2021/08/14 08:28:21;;;;;;;12.00;3.83;;;;;;;27.24;36.08;100939.88;4426773;32;20038;-68
2021/08/14 08:30:48;;;;;;;14.07;3.70;;;;;;;27.49;35.70;100940.53;4423603;32;20137;-68
2021/08/14 08:33:13;;;;;;;10.77;4.12;;;;;;;27.13;35.83;100940.81;4423325;32;20086;-68
2021/08/14 08:35:39;;;;;;;15.98;4.78;;;;;;;27.36;35.28;100931.81;4424816;32;20089;-68
2021/08/14 08:38:05;;;;;;;11.15;4.22;;;;;;;27.60;34.82;100943.19;4420317;32;20054;-68
2021/08/14 08:40:38;;;;;;;11.05;4.03;;;;;;;27.26;34.89;100922.00;4420610;32;20430;-68
2021/08/14 08:43:04;;;;;;;9.77;3.75;;;;;;;27.22;35.25;100928.84;4423552;32;20033;-68
2021/08/14 08:45:31;;;;;;;12.40;4.32;;;;;;;26.84;35.79;100924.47;4424792;32;20046;-68
2021/08/14 08:47:57;;;;;;;10.60;3.45;;;;;;;26.78;35.91;100931.63;4420512;32;20061;-68
2021/08/14 08:50:27;;;;;;;10.23;4.50;;;;;;;26.32;36.27;100932.00;4421261;32;20065;-68
2021/08/14 08:52:53;;;;;;;12.68;4.57;;;;;;;26.66;36.06;100930.25;4423399;32;20061;-68
2021/08/14 08:55:22;;;;;;;9.80;3.53;;;;;;;26.67;36.05;100923.16;4418000;32;20076;-68
2021/08/14 08:57:48;;;;;;;10.90;3.65;;;;;;;26.86;35.94;100924.69;4419795;32;20385;-68
2021/08/14 09:00:16;;;;;;;6.95;3.42;;;;;;;26.93;35.46;100926.16;4423193;32;20073;-68
2021/08/14 09:02:45;;;;;;;10.07;2.95;;;;;;;27.18;34.99;100931.28;4425255;32;20059;-68
2021/08/14 09:07:48;;;;;;;10.60;2.90;;;;;;;28.00;33.35;100950.62;3952519;32;15827522;-69
2021/08/14 09:10:21;;;;;;;11.63;3.20;;;;;;;28.00;33.35;100950.62;4436232;32;20648;-68
2021/08/14 09:12:47;;;;;;;13.20;2.62;;;;;;;27.95;33.09;100960.22;4437037;32;20069;-68
2021/08/14 09:15:17;;;;;;;9.23;2.83;;;;;;;27.25;33.46;100958.00;4432963;32;20017;-69
2021/08/14 09:17:44;;;;;;;11.12;2.65;;;;;;;27.76;32.86;100956.59;4431921;32;20103;-68
2021/08/14 09:28:16;;;;;;;6.78;2.50;;;;;;;29.20;31.13;100946.47;3970663;32;15025113;-69
2021/08/14 09:35:59;;;;;;;13.65;2.62;;;;;;;29.43;30.75;100961.19;3985146;32;15022808;-69
2021/08/14 09:41:20;;;;;;;5.25;2.20;;;;;;;29.38;31.02;100941.81;3984167;32;15029263;-68
2021/08/14 09:43:50;;;;;;;9.25;2.35;;;;;;;29.38;31.02;100941.81;4437618;32;20398;-68
2021/08/14 09:46:16;;;;;;;11.70;2.67;;;;;;;29.45;30.38;100941.87;4437144;32;20094;-68
2021/08/14 09:48:42;;;;;;;6.82;2.20;;;;;;;29.35;30.49;100934.25;4436132;32;20069;-68
2021/08/14 09:51:30;;;;;;;9.90;3.15;;;;;;;29.56;30.23;100932.13;4436361;32;20179;-69
2021/08/14 09:53:57;;;;;;;5.05;2.35;;;;;;;29.53;29.98;100936.94;4435819;32;20067;-69
2021/08/14 09:56:26;;;;;;;13.13;3.17;;;;;;;29.25;30.29;100941.87;4439561;32;20022;-69
2021/08/14 09:58:52;;;;;;;8.43;2.60;;;;;;;28.88;30.88;100940.91;4432917;32;20085;-67
2021/08/14 10:01:19;;;;;;;8.55;2.92;;;;;;;28.58;31.37;100937.63;4433995;32;20434;-69
2021/08/14 10:03:46;;;;;;;11.15;2.92;;;;;;;28.56;31.18;100942.44;4435102;32;20060;-67
2021/08/14 10:06:13;;;;;;;7.45;2.55;;;;;;;28.69;31.07;100948.94;4436469;32;20073;-67
2021/08/14 10:08:40;;;;;;;9.77;2.95;;;;;;;28.60;31.01;100955.19;4438305;32;20041;-67
2021/08/14 10:11:11;;;;;;;10.38;3.08;;;;;;;27.90;31.76;100959.00;4436622;32;20067;-67
2021/08/14 10:13:39;;;;;;;10.50;2.80;;;;;;;28.21;31.36;100961.00;4435639;32;20348;-67
2021/08/14 10:16:05;;;;;;;10.98;2.72;;;;;;;28.01;31.78;100963.78;4437432;32;20059;-67
2021/08/14 10:18:31;;;;;;;22.87;3.53;;;;;;;27.79;31.96;100978.66;4434555;32;20045;-67
2021/08/14 10:20:57;;;;;;;6.72;2.12;;;;;;;28.25;31.54;100970.13;4435242;32;20458;-67
2021/08/14 10:23:24;;;;;;;14.30;2.97;;;;;;;27.92;31.89;100964.97;4438460;32;20025;-67
2021/08/14 10:28:51;;;;;;;14.73;3.12;;;;;;;28.51;31.44;100963.59;3984217;32;15024752;-68
2021/08/14 10:36:49;;;;;;;13.27;3.40;;;;;;;29.01;30.88;100960.34;3982997;32;15030157;-68
2021/08/14 10:39:31;;;;;;;14.45;3.03;;;;;;;29.01;30.88;100960.34;4431240;32;20387;-68
2021/08/14 10:42:00;;;;;;;8.13;2.72;;;;;;;28.31;31.71;100961.31;4432584;32;20090;-68
2021/08/14 10:44:46;;;;;;;11.90;3.30;;;;;;;28.52;31.75;100954.34;4434026;32;20092;-68
2021/08/14 10:50:09;;;;;;;9.52;3.17;;;;;;;28.88;31.14;100969.88;3987457;32;15024184;-68
2021/08/14 10:52:37;;;;;;;9.40;3.55;;;;;;;28.88;31.14;100969.88;4437965;32;20068;-68
2021/08/14 10:55:08;;;;;;;7.37;2.83;;;;;;;28.63;31.20;100954.09;4434877;32;20049;-68
2021/08/14 11:00:22;;;;;;;9.40;3.30;;;;;;;28.50;31.55;100953.34;3964992;32;15023590;-68
2021/08/14 11:05:33;;;;;;;7.93;3.53;;;;;;;28.70;31.52;100941.84;3981766;32;15025793;-69
2021/08/14 11:08:00;;;;;;;5.55;2.87;;;;;;;28.70;31.52;100941.84;4433091;32;20506;-69
2021/08/14 11:10:42;;;;;;;8.75;3.35;;;;;;;27.63;32.56;100951.56;4436523;32;20386;-69
2021/08/14 11:16:06;;;;;;;8.48;3.37;;;;;;;28.13;31.37;100957.22;3968264;32;15026260;-69
2021/08/14 11:18:53;;;;;;;12.70;3.62;;;;;;;28.13;31.37;100957.22;4422494;32;20064;-69
2021/08/14 11:21:40;;;;;;;7.80;2.90;;;;;;;28.12;31.29;100954.88;4415335;32;20077;-69
2021/08/14 11:24:06;;;;;;;16.77;5.28;;;;;;;28.49;30.79;100966.25;4415464;32;20769;-68
2021/08/14 11:26:34;;;;;;;10.23;2.87;;;;;;;28.20;31.03;100967.34;4418734;32;20077;-69
2021/08/14 11:29:01;;;;;;;12.05;3.45;;;;;;;28.18;31.33;100958.44;4416083;32;20091;-69
2021/08/14 11:31:28;;;;;;;7.68;3.12;;;;;;;28.08;31.57;100966.00;4418722;32;20784;-69
2021/08/14 11:34:11;;;;;;;8.73;4.55;;;;;;;27.85;31.41;100959.84;4416195;32;20872;-69
2021/08/14 11:36:37;;;;;;;7.82;3.12;;;;;;;28.07;31.27;100968.13;4414803;32;20104;-67
2021/08/14 11:39:03;;;;;;;9.55;3.10;;;;;;;28.04;31.30;100968.47;4418648;32;20504;-67
2021/08/14 11:41:29;;;;;;;9.07;3.12;;;;;;;27.92;31.52;100961.34;4420661;32;20042;-67
2021/08/14 11:44:06;;;;;;;14.38;3.60;;;;;;;28.24;31.25;100968.59;4416906;32;20038;-67
2021/08/14 11:46:32;;;;;;;6.68;3.25;;;;;;;28.55;30.75;100961.12;4419048;32;20103;-68
2021/08/14 11:49:02;;;;;;;12.98;3.78;;;;;;;28.34;31.17;100958.09;4417600;32;20419;-67
2021/08/14 11:51:29;;;;;;;15.90;7.00;;;;;;;28.73;30.84;100971.78;4415376;32;20273;-68
2021/08/14 11:56:39;;;;;;;10.27;3.40;;;;;;;28.95;30.07;100963.38;3981511;32;15028715;-69
2021/08/14 11:59:05;;;;;;;8.73;3.12;;;;;;;28.95;30.07;100963.38;4419674;32;20385;-69